Time,TemperatureF,DewpointF,PressureIn,WindDirection,WindDirectionDegrees,WindSpeedMPH,WindSpeedGustMPH,Humidity,HourlyPrecipIn,Conditions,Clouds,dailyrainin,SoftwareType,DateUTC
2013-10-07 00:22:00,67.0,32.0,29.89,West,266,0.0,0.0,27,0.00,,,0.00,,2013-10-07 07:22:00,
2013-10-07 00:42:00,67.0,31.0,29.89,West,265,0.0,0.0,26,0.00,,,0.00,,2013-10-07 07:42:00,
2013-10-07 00:52:00,67.0,33.0,29.89,West,266,0.0,0.0,28,0.00,,,0.00,,2013-10-07 07:52:00,
2013-10-07 01:21:00,66.0,31.0,29.89,West,265,0.0,0.0,27,0.00,,,0.00,,2013-10-07 08:21:00,
2013-10-07 01:52:00,65.0,29.0,29.88,West,266,0.0,0.0,26,0.00,,,0.00,,2013-10-07 08:52:00,
2013-10-07 02:21:00,69.0,27.0,29.87,North,355,0.0,1.0,21,0.00,,,0.00,,2013-10-07 09:21:00,
2013-10-07 02:53:00,72.0,29.0,29.87,NW,323,0.0,5.0,20,0.00,,,0.00,,2013-10-07 09:53:00,
2013-10-07 03:23:00,71.0,27.0,29.86,NNW,335,0.0,3.0,19,0.00,,,0.00,,2013-10-07 10:23:00,
2013-10-07 03:53:00,71.0,28.0,29.85,NW,319,1.0,3.0,20,0.00,,,0.00,,2013-10-07 10:53:00,
2013-10-07 04:22:00,70.0,30.0,29.85,NW,323,1.0,5.0,23,0.00,,,0.00,,2013-10-07 11:22:00,
2013-10-07 04:42:00,68.0,31.0,29.85,NW,322,0.0,0.0,25,0.00,,,0.00,,2013-10-07 11:42:00,
2013-10-07 04:52:00,67.0,29.0,29.85,NW,323,0.0,0.0,24,0.00,,,0.00,,2013-10-07 11:52:00,
2013-10-07 05:21:00,66.0,29.0,29.85,NNW,330,0.0,0.0,25,0.00,,,0.00,,2013-10-07 12:21:00,
2013-10-07 05:42:00,65.0,29.0,29.85,NNW,331,0.0,3.0,26,0.00,,,0.00,,2013-10-07 12:42:00,
2013-10-07 05:52:00,65.0,28.0,29.85,NW,325,0.0,1.0,25,0.00,,,0.00,,2013-10-07 12:52:00,
2013-10-07 06:11:00,65.0,28.0,29.85,NNW,342,1.0,5.0,25,0.00,,,0.00,,2013-10-07 13:11:00,
2013-10-07 06:21:00,66.0,28.0,29.85,North,3,1.0,3.0,24,0.00,,,0.00,,2013-10-07 13:21:00,
2013-10-07 06:42:00,66.0,28.0,29.85,North,349,1.0,6.0,24,0.00,,,0.00,,2013-10-07 13:42:00,
2013-10-07 06:52:00,65.0,30.0,29.86,North,0,1.0,6.0,27,0.00,,,0.00,,2013-10-07 13:52:00,
2013-10-07 07:11:00,64.0,29.0,29.86,North,356,0.0,3.0,27,0.00,,,0.00,,2013-10-07 14:11:00,
2013-10-07 07:22:00,64.0,31.0,29.87,NNW,347,0.0,3.0,29,0.00,,,0.00,,2013-10-07 14:22:00,
2013-10-07 07:32:00,64.0,31.0,29.87,NNW,347,0.0,3.0,29,0.00,,,0.00,,2013-10-07 14:32:00,
2013-10-07 07:42:00,64.0,31.0,29.87,NNW,347,0.0,3.0,29,0.00,,,0.00,,2013-10-07 14:42:00,
2013-10-07 07:52:00,64.0,33.0,29.87,North,0,1.0,3.0,31,0.00,,,0.00,,2013-10-07 14:52:00,
2013-10-07 08:21:00,66.0,33.0,29.88,North,0,0.0,3.0,29,0.00,,,0.00,,2013-10-07 15:21:00,
2013-10-07 08:43:00,68.0,34.0,29.88,North,9,3.0,6.0,28,0.00,,,0.00,,2013-10-07 15:43:00,
2013-10-07 08:53:00,69.0,34.0,29.89,NNE,17,5.0,9.0,27,0.00,,,0.00,,2013-10-07 15:53:00,
2013-10-07 09:23:00,73.0,35.0,29.88,North,359,2.0,9.0,25,0.00,,,0.00,,2013-10-07 16:23:00,
2013-10-07 09:53:00,77.0,34.0,29.88,North,10,3.0,10.0,21,0.00,,,0.00,,2013-10-07 16:53:00,
2013-10-07 10:22:00,81.0,32.0,29.88,NE,36,4.0,12.0,17,0.00,,,0.00,,2013-10-07 17:22:00,
2013-10-07 10:52:00,83.0,35.0,29.88,North,0,2.0,9.0,18,0.00,,,0.00,,2013-10-07 17:52:00,
2013-10-07 12:52:00,91.0,35.0,29.84,NNW,339,0.0,3.0,14,0.00,,,0.00,,2013-10-07 19:52:00,
2013-10-07 17:21:00,93.0,37.0,29.76,West,279,0.0,0.0,14,0.00,,,0.00,,2013-10-08 00:21:00,
2013-10-07 17:52:00,92.0,38.0,29.76,West,279,0.0,0.0,15,0.00,,,0.00,,2013-10-08 00:52:00,
2013-10-07 18:21:00,90.0,39.0,29.75,West,279,0.0,0.0,17,0.00,,,0.00,,2013-10-08 01:21:00,
2013-10-07 18:52:00,89.0,40.0,29.75,West,279,0.0,0.0,18,0.00,,,0.00,,2013-10-08 01:52:00,
2013-10-07 19:21:00,87.0,38.0,29.76,West,279,0.0,0.0,18,0.00,,,0.00,,2013-10-08 02:21:00,
2013-10-07 19:52:00,85.0,38.0,29.76,West,279,0.0,0.0,19,0.00,,,0.00,,2013-10-08 02:52:00,
2013-10-07 20:22:00,83.0,39.0,29.76,West,279,0.0,0.0,21,0.00,,,0.00,,2013-10-08 03:22:00,
2013-10-07 20:55:00,81.0,37.0,29.77,West,279,0.0,0.0,21,0.00,,,0.00,,2013-10-08 03:55:00,
2013-10-07 21:14:00,80.0,37.0,29.77,West,279,0.0,0.0,21,0.00,,,0.00,,2013-10-08 04:14:00,
2013-10-07 21:23:00,79.0,38.0,29.77,West,279,0.0,0.0,23,0.00,,,0.00,,2013-10-08 04:23:00,
2013-10-07 21:53:00,77.0,37.0,29.77,West,279,0.0,0.0,24,0.00,,,0.00,,2013-10-08 04:53:00,
2013-10-07 22:22:00,76.0,38.0,29.78,West,279,0.0,0.0,25,0.00,,,0.00,,2013-10-08 05:22:00,
2013-10-07 22:53:00,74.0,36.0,29.77,West,279,0.0,0.0,25,0.00,,,0.00,,2013-10-08 05:53:00,
2013-10-07 23:22:00,72.0,36.0,29.77,West,279,0.0,0.0,27,0.00,,,0.00,,2013-10-08 06:22:00,
2013-10-07 23:52:00,71.0,35.0,29.77,West,279,0.0,0.0,27,0.00,,,0.00,,2013-10-08 06:52:00,